sensor_id;sensor_type;location;lat;lon;timestamp;temperature;humidity
40085;DHT22;25786;51.504;7.344;2023-10-08T00:01:03;18.80;73.20
40085;DHT22;25786;51.504;7.344;2023-10-08T00:03:28;18.70;73.10
40085;DHT22;25786;51.504;7.344;2023-10-08T00:05:55;18.60;73.50
40085;DHT22;25786;51.504;7.344;2023-10-08T00:08:20;18.60;73.90
40085;DHT22;25786;51.504;7.344;2023-10-08T00:10:46;18.60;73.80
40085;DHT22;25786;51.504;7.344;2023-10-08T00:13:13;18.60;73.70
40085;DHT22;25786;51.504;7.344;2023-10-08T00:15:41;18.60;73.70
40085;DHT22;25786;51.504;7.344;2023-10-08T00:18:20;18.60;73.40
40085;DHT22;25786;51.504;7.344;2023-10-08T00:20:46;18.60;73.50
40085;DHT22;25786;51.504;7.344;2023-10-08T00:23:23;18.50;73.70
40085;DHT22;25786;51.504;7.344;2023-10-08T00:25:53;18.60;73.60
40085;DHT22;25786;51.504;7.344;2023-10-08T00:28:20;18.60;73.80
40085;DHT22;25786;51.504;7.344;2023-10-08T00:30:46;18.60;73.40
40085;DHT22;25786;51.504;7.344;2023-10-08T00:33:13;18.60;73.40
40085;DHT22;25786;51.504;7.344;2023-10-08T00:35:39;18.60;73.40
40085;DHT22;25786;51.504;7.344;2023-10-08T00:38:09;18.60;73.70
40085;DHT22;25786;51.504;7.344;2023-10-08T00:40:42;18.50;73.70
40085;DHT22;25786;51.504;7.344;2023-10-08T00:43:33;18.60;73.90
40085;DHT22;25786;51.504;7.344;2023-10-08T00:45:59;18.50;74.20
40085;DHT22;25786;51.504;7.344;2023-10-08T00:48:25;18.40;74.20
40085;DHT22;25786;51.504;7.344;2023-10-08T00:50:57;18.40;74.40
40085;DHT22;25786;51.504;7.344;2023-10-08T00:53:40;18.40;74.80
40085;DHT22;25786;51.504;7.344;2023-10-08T00:56:08;18.40;74.30
40085;DHT22;25786;51.504;7.344;2023-10-08T00:58:44;18.40;74.50
40085;DHT22;25786;51.504;7.344;2023-10-08T01:01:13;18.30;74.70
40085;DHT22;25786;51.504;7.344;2023-10-08T01:03:42;18.30;74.90
40085;DHT22;25786;51.504;7.344;2023-10-08T01:06:12;18.20;75.00
40085;DHT22;25786;51.504;7.344;2023-10-08T01:08:40;18.20;75.10
40085;DHT22;25786;51.504;7.344;2023-10-08T01:11:17;18.20;75.10
40085;DHT22;25786;51.504;7.344;2023-10-08T01:13:43;18.10;75.10
40085;DHT22;25786;51.504;7.344;2023-10-08T01:16:11;18.20;75.00
40085;DHT22;25786;51.504;7.344;2023-10-08T01:18:36;18.20;74.90
40085;DHT22;25786;51.504;7.344;2023-10-08T01:21:02;18.30;74.60
40085;DHT22;25786;51.504;7.344;2023-10-08T01:23:36;18.20;74.90
40085;DHT22;25786;51.504;7.344;2023-10-08T01:26:03;18.20;74.90
40085;DHT22;25786;51.504;7.344;2023-10-08T01:28:36;18.20;75.00
40085;DHT22;25786;51.504;7.344;2023-10-08T01:31:02;18.20;74.70
40085;DHT22;25786;51.504;7.344;2023-10-08T01:33:32;18.30;74.70
40085;DHT22;25786;51.504;7.344;2023-10-08T01:36:02;18.40;74.50
40085;DHT22;25786;51.504;7.344;2023-10-08T01:38:30;18.30;74.30
40085;DHT22;25786;51.504;7.344;2023-10-08T01:40:56;18.30;74.60
40085;DHT22;25786;51.504;7.344;2023-10-08T01:43:22;18.40;74.10
40085;DHT22;25786;51.504;7.344;2023-10-08T01:45:47;18.30;74.50
40085;DHT22;25786;51.504;7.344;2023-10-08T01:48:17;18.30;74.50
40085;DHT22;25786;51.504;7.344;2023-10-08T01:50:53;18.30;74.20
40085;DHT22;25786;51.504;7.344;2023-10-08T01:53:20;18.30;74.40
40085;DHT22;25786;51.504;7.344;2023-10-08T01:55:45;18.20;74.40
40085;DHT22;25786;51.504;7.344;2023-10-08T01:58:14;18.20;74.60
40085;DHT22;25786;51.504;7.344;2023-10-08T02:00:44;18.20;74.30
40085;DHT22;25786;51.504;7.344;2023-10-08T02:03:11;18.20;74.50
40085;DHT22;25786;51.504;7.344;2023-10-08T02:05:37;18.20;74.50
40085;DHT22;25786;51.504;7.344;2023-10-08T02:08:04;18.10;75.10
40085;DHT22;25786;51.504;7.344;2023-10-08T02:10:31;18.30;74.60
40085;DHT22;25786;51.504;7.344;2023-10-08T02:12:58;18.20;74.80
40085;DHT22;25786;51.504;7.344;2023-10-08T02:15:24;18.20;74.90
40085;DHT22;25786;51.504;7.344;2023-10-08T02:17:51;18.10;75.00
40085;DHT22;25786;51.504;7.344;2023-10-08T02:20:17;18.10;75.10
40085;DHT22;25786;51.504;7.344;2023-10-08T02:22:44;18.10;75.30
40085;DHT22;25786;51.504;7.344;2023-10-08T02:25:10;18.10;75.30
40085;DHT22;25786;51.504;7.344;2023-10-08T02:27:36;18.10;75.00
40085;DHT22;25786;51.504;7.344;2023-10-08T02:30:03;18.10;75.30
40085;DHT22;25786;51.504;7.344;2023-10-08T02:32:31;18.10;75.00
40085;DHT22;25786;51.504;7.344;2023-10-08T02:34:57;18.10;75.20
40085;DHT22;25786;51.504;7.344;2023-10-08T02:37:22;18.10;75.10
40085;DHT22;25786;51.504;7.344;2023-10-08T02:39:48;18.10;75.10
40085;DHT22;25786;51.504;7.344;2023-10-08T02:42:14;18.00;75.30
40085;DHT22;25786;51.504;7.344;2023-10-08T02:44:39;18.00;75.70
40085;DHT22;25786;51.504;7.344;2023-10-08T02:47:10;17.90;76.40
40085;DHT22;25786;51.504;7.344;2023-10-08T02:49:48;17.90;76.20
40085;DHT22;25786;51.504;7.344;2023-10-08T02:52:17;17.90;76.60
40085;DHT22;25786;51.504;7.344;2023-10-08T02:54:43;17.80;76.60
40085;DHT22;25786;51.504;7.344;2023-10-08T02:57:08;17.90;76.50
40085;DHT22;25786;51.504;7.344;2023-10-08T02:59:39;18.00;75.70
40085;DHT22;25786;51.504;7.344;2023-10-08T03:02:13;18.00;76.10
40085;DHT22;25786;51.504;7.344;2023-10-08T03:04:40;18.00;76.40
40085;DHT22;25786;51.504;7.344;2023-10-08T03:07:07;17.80;76.80
40085;DHT22;25786;51.504;7.344;2023-10-08T03:09:37;17.80;76.90
40085;DHT22;25786;51.504;7.344;2023-10-08T03:12:07;17.70;77.10
40085;DHT22;25786;51.504;7.344;2023-10-08T03:14:35;17.80;76.90
40085;DHT22;25786;51.504;7.344;2023-10-08T03:17:13;17.80;76.80
40085;DHT22;25786;51.504;7.344;2023-10-08T03:19:45;17.90;76.50
40085;DHT22;25786;51.504;7.344;2023-10-08T03:22:10;17.90;76.30
40085;DHT22;25786;51.504;7.344;2023-10-08T03:24:37;17.90;76.40
40085;DHT22;25786;51.504;7.344;2023-10-08T03:27:04;17.80;76.20
40085;DHT22;25786;51.504;7.344;2023-10-08T03:29:37;17.80;76.00
40085;DHT22;25786;51.504;7.344;2023-10-08T03:32:10;17.90;75.80
40085;DHT22;25786;51.504;7.344;2023-10-08T03:34:39;17.70;76.10
40085;DHT22;25786;51.504;7.344;2023-10-08T03:37:08;17.70;76.30
40085;DHT22;25786;51.504;7.344;2023-10-08T03:39:34;17.70;76.40
40085;DHT22;25786;51.504;7.344;2023-10-08T03:42:26;17.70;76.20
40085;DHT22;25786;51.504;7.344;2023-10-08T03:44:55;17.70;76.20
40085;DHT22;25786;51.504;7.344;2023-10-08T03:47:21;17.60;76.60
40085;DHT22;25786;51.504;7.344;2023-10-08T03:49:52;17.50;76.60
40085;DHT22;25786;51.504;7.344;2023-10-08T03:52:19;17.50;76.80
40085;DHT22;25786;51.504;7.344;2023-10-08T03:54:48;17.60;76.90
40085;DHT22;25786;51.504;7.344;2023-10-08T03:57:20;17.70;76.20
40085;DHT22;25786;51.504;7.344;2023-10-08T03:59:54;17.60;76.80
40085;DHT22;25786;51.504;7.344;2023-10-08T04:02:24;17.70;76.50
40085;DHT22;25786;51.504;7.344;2023-10-08T04:05:05;17.70;76.50
40085;DHT22;25786;51.504;7.344;2023-10-08T04:07:43;17.70;76.30
40085;DHT22;25786;51.504;7.344;2023-10-08T04:10:32;17.60;76.30
40085;DHT22;25786;51.504;7.344;2023-10-08T04:13:06;17.50;76.50
40085;DHT22;25786;51.504;7.344;2023-10-08T04:15:37;17.50;76.50
40085;DHT22;25786;51.504;7.344;2023-10-08T04:18:09;17.50;76.70
40085;DHT22;25786;51.504;7.344;2023-10-08T04:20:35;17.50;76.40
40085;DHT22;25786;51.504;7.344;2023-10-08T04:23:03;17.60;76.20
40085;DHT22;25786;51.504;7.344;2023-10-08T04:25:30;17.40;76.80
40085;DHT22;25786;51.504;7.344;2023-10-08T04:27:55;17.40;76.90
40085;DHT22;25786;51.504;7.344;2023-10-08T04:30:25;17.50;77.00
40085;DHT22;25786;51.504;7.344;2023-10-08T04:33:01;17.50;76.60
40085;DHT22;25786;51.504;7.344;2023-10-08T04:35:33;17.40;76.80
40085;DHT22;25786;51.504;7.344;2023-10-08T04:38:02;17.30;76.90
40085;DHT22;25786;51.504;7.344;2023-10-08T04:40:28;17.30;76.90
40085;DHT22;25786;51.504;7.344;2023-10-08T04:42:58;17.30;77.00
40085;DHT22;25786;51.504;7.344;2023-10-08T04:45:27;17.20;77.30
40085;DHT22;25786;51.504;7.344;2023-10-08T04:47:53;17.10;77.20
40085;DHT22;25786;51.504;7.344;2023-10-08T04:50:19;17.20;77.30
40085;DHT22;25786;51.504;7.344;2023-10-08T04:52:46;17.20;77.00
40085;DHT22;25786;51.504;7.344;2023-10-08T04:55:26;17.20;77.20
40085;DHT22;25786;51.504;7.344;2023-10-08T04:57:55;17.10;77.40
40085;DHT22;25786;51.504;7.344;2023-10-08T05:00:21;17.20;77.20
40085;DHT22;25786;51.504;7.344;2023-10-08T05:03:06;17.10;77.20
40085;DHT22;25786;51.504;7.344;2023-10-08T05:05:41;17.10;77.30
40085;DHT22;25786;51.504;7.344;2023-10-08T05:08:36;17.20;76.80
40085;DHT22;25786;51.504;7.344;2023-10-08T05:11:13;17.20;77.70
40085;DHT22;25786;51.504;7.344;2023-10-08T05:14:02;17.20;77.00
40085;DHT22;25786;51.504;7.344;2023-10-08T05:16:32;17.30;76.90
40085;DHT22;25786;51.504;7.344;2023-10-08T05:19:10;17.20;77.10
40085;DHT22;25786;51.504;7.344;2023-10-08T05:21:54;17.20;77.30
40085;DHT22;25786;51.504;7.344;2023-10-08T05:24:40;17.20;77.30
40085;DHT22;25786;51.504;7.344;2023-10-08T05:27:16;17.30;77.00
40085;DHT22;25786;51.504;7.344;2023-10-08T05:30:02;17.20;77.50
40085;DHT22;25786;51.504;7.344;2023-10-08T05:32:41;17.20;77.20
40085;DHT22;25786;51.504;7.344;2023-10-08T05:35:25;17.30;77.30
40085;DHT22;25786;51.504;7.344;2023-10-08T05:38:23;17.40;76.60
40085;DHT22;25786;51.504;7.344;2023-10-08T05:40:52;17.30;77.00
40085;DHT22;25786;51.504;7.344;2023-10-08T05:43:24;17.20;77.50
40085;DHT22;25786;51.504;7.344;2023-10-08T05:46:04;17.20;78.10
40085;DHT22;25786;51.504;7.344;2023-10-08T05:48:58;17.20;77.40
40085;DHT22;25786;51.504;7.344;2023-10-08T05:51:41;17.30;77.40
40085;DHT22;25786;51.504;7.344;2023-10-08T05:54:30;17.20;78.00
40085;DHT22;25786;51.504;7.344;2023-10-08T05:57:03;17.10;78.50
40085;DHT22;25786;51.504;7.344;2023-10-08T05:59:33;17.10;78.90
40085;DHT22;25786;51.504;7.344;2023-10-08T06:02:39;17.00;79.20
40085;DHT22;25786;51.504;7.344;2023-10-08T06:05:04;17.10;78.90
40085;DHT22;25786;51.504;7.344;2023-10-08T06:07:39;17.00;79.00
40085;DHT22;25786;51.504;7.344;2023-10-08T06:10:30;17.00;78.90
40085;DHT22;25786;51.504;7.344;2023-10-08T06:18:30;17.10;78.80
40085;DHT22;25786;51.504;7.344;2023-10-08T06:20:57;17.10;79.10
40085;DHT22;25786;51.504;7.344;2023-10-08T06:23:27;17.10;79.00
40085;DHT22;25786;51.504;7.344;2023-10-08T06:25:54;17.10;79.30
40085;DHT22;25786;51.504;7.344;2023-10-08T06:28:22;17.10;78.70
40085;DHT22;25786;51.504;7.344;2023-10-08T06:30:51;17.10;78.90
40085;DHT22;25786;51.504;7.344;2023-10-08T06:33:24;17.20;79.00
40085;DHT22;25786;51.504;7.344;2023-10-08T06:35:56;17.20;78.10
40085;DHT22;25786;51.504;7.344;2023-10-08T06:38:42;17.30;77.80
40085;DHT22;25786;51.504;7.344;2023-10-08T06:41:10;17.30;77.30
40085;DHT22;25786;51.504;7.344;2023-10-08T06:43:38;17.20;77.80
40085;DHT22;25786;51.504;7.344;2023-10-08T06:46:05;17.10;78.10
40085;DHT22;25786;51.504;7.344;2023-10-08T06:48:33;17.10;78.70
40085;DHT22;25786;51.504;7.344;2023-10-08T06:51:00;17.20;77.80
40085;DHT22;25786;51.504;7.344;2023-10-08T06:53:33;17.10;77.90
40085;DHT22;25786;51.504;7.344;2023-10-08T06:55:59;17.20;77.30
40085;DHT22;25786;51.504;7.344;2023-10-08T06:58:29;17.10;77.70
40085;DHT22;25786;51.504;7.344;2023-10-08T07:00:57;17.10;77.80
40085;DHT22;25786;51.504;7.344;2023-10-08T07:03:24;17.10;78.50
40085;DHT22;25786;51.504;7.344;2023-10-08T07:05:51;17.10;78.40
40085;DHT22;25786;51.504;7.344;2023-10-08T07:08:22;17.10;78.10
40085;DHT22;25786;51.504;7.344;2023-10-08T07:10:52;17.10;78.50
40085;DHT22;25786;51.504;7.344;2023-10-08T07:13:21;17.10;78.90
40085;DHT22;25786;51.504;7.344;2023-10-08T07:15:51;17.00;79.40
40085;DHT22;25786;51.504;7.344;2023-10-08T07:18:17;17.00;80.00
40085;DHT22;25786;51.504;7.344;2023-10-08T07:20:53;17.00;80.50
40085;DHT22;25786;51.504;7.344;2023-10-08T07:23:26;16.80;80.90
40085;DHT22;25786;51.504;7.344;2023-10-08T07:25:54;16.60;81.20
40085;DHT22;25786;51.504;7.344;2023-10-08T07:28:41;16.40;82.10
40085;DHT22;25786;51.504;7.344;2023-10-08T07:31:13;16.30;82.70
40085;DHT22;25786;51.504;7.344;2023-10-08T07:33:41;16.20;83.20
40085;DHT22;25786;51.504;7.344;2023-10-08T07:36:10;15.80;83.60
40085;DHT22;25786;51.504;7.344;2023-10-08T07:38:40;15.60;84.10
40085;DHT22;25786;51.504;7.344;2023-10-08T07:41:08;15.30;84.10
40085;DHT22;25786;51.504;7.344;2023-10-08T07:43:34;15.30;84.40
40085;DHT22;25786;51.504;7.344;2023-10-08T07:46:00;15.30;84.50
40085;DHT22;25786;51.504;7.344;2023-10-08T07:48:26;15.30;84.40
40085;DHT22;25786;51.504;7.344;2023-10-08T07:50:55;15.20;84.40
40085;DHT22;25786;51.504;7.344;2023-10-08T07:53:22;15.20;84.70
40085;DHT22;25786;51.504;7.344;2023-10-08T07:55:50;15.10;84.80
40085;DHT22;25786;51.504;7.344;2023-10-08T07:58:16;15.10;85.00
40085;DHT22;25786;51.504;7.344;2023-10-08T08:00:43;15.30;84.50
40085;DHT22;25786;51.504;7.344;2023-10-08T08:03:19;15.30;84.10
40085;DHT22;25786;51.504;7.344;2023-10-08T08:05:45;15.20;84.30
40085;DHT22;25786;51.504;7.344;2023-10-08T08:08:12;15.00;84.50
40085;DHT22;25786;51.504;7.344;2023-10-08T08:10:43;14.90;84.70
40085;DHT22;25786;51.504;7.344;2023-10-08T08:13:09;14.80;85.20
40085;DHT22;25786;51.504;7.344;2023-10-08T08:15:35;14.70;85.50
40085;DHT22;25786;51.504;7.344;2023-10-08T08:18:07;14.70;85.60
40085;DHT22;25786;51.504;7.344;2023-10-08T08:20:34;14.70;85.60
40085;DHT22;25786;51.504;7.344;2023-10-08T08:23:04;14.70;85.80
40085;DHT22;25786;51.504;7.344;2023-10-08T08:25:36;14.70;85.30
40085;DHT22;25786;51.504;7.344;2023-10-08T08:28:11;14.70;85.00
40085;DHT22;25786;51.504;7.344;2023-10-08T08:30:43;14.70;85.20
40085;DHT22;25786;51.504;7.344;2023-10-08T08:33:12;14.60;85.40
40085;DHT22;25786;51.504;7.344;2023-10-08T08:35:38;14.60;85.50
40085;DHT22;25786;51.504;7.344;2023-10-08T08:38:04;14.50;86.00
40085;DHT22;25786;51.504;7.344;2023-10-08T08:40:31;14.70;86.10
40085;DHT22;25786;51.504;7.344;2023-10-08T08:42:58;14.60;86.00
40085;DHT22;25786;51.504;7.344;2023-10-08T08:45:27;14.60;86.10
40085;DHT22;25786;51.504;7.344;2023-10-08T08:47:56;14.50;86.00
40085;DHT22;25786;51.504;7.344;2023-10-08T08:50:22;14.50;86.00
40085;DHT22;25786;51.504;7.344;2023-10-08T08:52:48;14.50;86.40
40085;DHT22;25786;51.504;7.344;2023-10-08T08:55:13;14.60;86.20
40085;DHT22;25786;51.504;7.344;2023-10-08T08:57:42;14.60;86.10
40085;DHT22;25786;51.504;7.344;2023-10-08T09:00:10;14.50;86.30
40085;DHT22;25786;51.504;7.344;2023-10-08T09:02:40;14.50;86.80
40085;DHT22;25786;51.504;7.344;2023-10-08T09:05:05;14.40;87.00
40085;DHT22;25786;51.504;7.344;2023-10-08T09:07:57;14.30;87.30
40085;DHT22;25786;51.504;7.344;2023-10-08T09:10:23;14.20;87.60
40085;DHT22;25786;51.504;7.344;2023-10-08T09:12:55;14.10;87.90
40085;DHT22;25786;51.504;7.344;2023-10-08T09:15:24;14.10;88.00
40085;DHT22;25786;51.504;7.344;2023-10-08T09:17:51;14.00;88.00
40085;DHT22;25786;51.504;7.344;2023-10-08T09:20:17;13.90;88.10
40085;DHT22;25786;51.504;7.344;2023-10-08T09:22:44;13.70;87.90
40085;DHT22;25786;51.504;7.344;2023-10-08T09:25:30;13.60;87.70
40085;DHT22;25786;51.504;7.344;2023-10-08T09:27:57;13.60;87.50
40085;DHT22;25786;51.504;7.344;2023-10-08T09:30:23;13.60;87.10
40085;DHT22;25786;51.504;7.344;2023-10-08T09:32:51;13.60;87.20
40085;DHT22;25786;51.504;7.344;2023-10-08T09:35:17;13.80;87.00
40085;DHT22;25786;51.504;7.344;2023-10-08T09:37:44;13.80;86.10
40085;DHT22;25786;51.504;7.344;2023-10-08T09:40:10;13.80;85.80
40085;DHT22;25786;51.504;7.344;2023-10-08T09:42:37;13.90;85.60
40085;DHT22;25786;51.504;7.344;2023-10-08T09:45:02;13.80;85.50
40085;DHT22;25786;51.504;7.344;2023-10-08T09:47:31;13.70;85.90
40085;DHT22;25786;51.504;7.344;2023-10-08T09:50:03;13.70;85.80
40085;DHT22;25786;51.504;7.344;2023-10-08T09:52:42;13.70;86.10
40085;DHT22;25786;51.504;7.344;2023-10-08T09:55:10;13.70;86.10
40085;DHT22;25786;51.504;7.344;2023-10-08T09:57:36;13.70;86.40
40085;DHT22;25786;51.504;7.344;2023-10-08T10:00:02;13.80;85.90
40085;DHT22;25786;51.504;7.344;2023-10-08T10:02:30;13.80;85.10
40085;DHT22;25786;51.504;7.344;2023-10-08T10:04:56;14.00;84.30
40085;DHT22;25786;51.504;7.344;2023-10-08T10:07:22;14.10;83.80
40085;DHT22;25786;51.504;7.344;2023-10-08T10:09:51;14.00;83.50
40085;DHT22;25786;51.504;7.344;2023-10-08T10:12:19;14.00;83.00
40085;DHT22;25786;51.504;7.344;2023-10-08T10:14:52;14.00;83.20
40085;DHT22;25786;51.504;7.344;2023-10-08T10:17:24;14.10;82.70
40085;DHT22;25786;51.504;7.344;2023-10-08T10:19:57;14.20;82.80
40085;DHT22;25786;51.504;7.344;2023-10-08T10:24:54;14.20;82.50
40085;DHT22;25786;51.504;7.344;2023-10-08T10:27:19;14.30;82.40
40085;DHT22;25786;51.504;7.344;2023-10-08T10:29:45;14.40;81.90
40085;DHT22;25786;51.504;7.344;2023-10-08T10:32:13;14.40;81.80
40085;DHT22;25786;51.504;7.344;2023-10-08T10:34:40;14.40;81.00
40085;DHT22;25786;51.504;7.344;2023-10-08T10:37:07;14.40;81.10
40085;DHT22;25786;51.504;7.344;2023-10-08T10:39:50;14.50;81.50
40085;DHT22;25786;51.504;7.344;2023-10-08T10:42:18;14.70;81.20
40085;DHT22;25786;51.504;7.344;2023-10-08T10:44:46;14.80;80.80
40085;DHT22;25786;51.504;7.344;2023-10-08T10:47:14;14.90;80.20
40085;DHT22;25786;51.504;7.344;2023-10-08T10:49:40;14.80;80.10
40085;DHT22;25786;51.504;7.344;2023-10-08T10:52:25;14.70;79.60
40085;DHT22;25786;51.504;7.344;2023-10-08T10:55:01;14.70;80.20
40085;DHT22;25786;51.504;7.344;2023-10-08T10:57:50;14.60;80.40
40085;DHT22;25786;51.504;7.344;2023-10-08T11:00:25;14.70;80.40
40085;DHT22;25786;51.504;7.344;2023-10-08T11:02:57;14.70;79.90
40085;DHT22;25786;51.504;7.344;2023-10-08T11:05:28;14.80;80.60
40085;DHT22;25786;51.504;7.344;2023-10-08T11:07:57;14.80;80.40
40085;DHT22;25786;51.504;7.344;2023-10-08T11:10:36;14.90;80.40
40085;DHT22;25786;51.504;7.344;2023-10-08T11:13:04;15.00;79.90
40085;DHT22;25786;51.504;7.344;2023-10-08T11:15:30;15.00;80.10
40085;DHT22;25786;51.504;7.344;2023-10-08T11:18:09;15.20;80.40
40085;DHT22;25786;51.504;7.344;2023-10-08T11:20:35;15.30;80.00
40085;DHT22;25786;51.504;7.344;2023-10-08T11:23:08;15.60;79.70
40085;DHT22;25786;51.504;7.344;2023-10-08T11:25:54;15.60;78.60
40085;DHT22;25786;51.504;7.344;2023-10-08T11:28:19;15.60;78.10
40085;DHT22;25786;51.504;7.344;2023-10-08T11:30:45;15.60;77.80
40085;DHT22;25786;51.504;7.344;2023-10-08T11:33:12;15.50;78.20
40085;DHT22;25786;51.504;7.344;2023-10-08T11:35:56;15.40;78.40
40085;DHT22;25786;51.504;7.344;2023-10-08T11:38:24;15.40;78.90
40085;DHT22;25786;51.504;7.344;2023-10-08T11:40:49;15.40;78.60
40085;DHT22;25786;51.504;7.344;2023-10-08T11:43:16;15.30;78.80
40085;DHT22;25786;51.504;7.344;2023-10-08T11:45:42;15.30;78.90
40085;DHT22;25786;51.504;7.344;2023-10-08T11:48:13;15.30;79.20
40085;DHT22;25786;51.504;7.344;2023-10-08T11:50:39;15.40;79.10
40085;DHT22;25786;51.504;7.344;2023-10-08T11:53:05;15.50;79.40
40085;DHT22;25786;51.504;7.344;2023-10-08T11:55:32;15.60;79.10
40085;DHT22;25786;51.504;7.344;2023-10-08T11:58:05;15.80;78.50
40085;DHT22;25786;51.504;7.344;2023-10-08T12:00:37;15.90;77.90
40085;DHT22;25786;51.504;7.344;2023-10-08T12:03:12;16.00;77.60
40085;DHT22;25786;51.504;7.344;2023-10-08T12:05:40;16.10;77.70
40085;DHT22;25786;51.504;7.344;2023-10-08T12:08:16;16.20;78.00
40085;DHT22;25786;51.504;7.344;2023-10-08T12:10:43;16.30;77.00
40085;DHT22;25786;51.504;7.344;2023-10-08T12:13:09;16.40;76.90
40085;DHT22;25786;51.504;7.344;2023-10-08T12:15:35;16.30;76.30
40085;DHT22;25786;51.504;7.344;2023-10-08T12:18:04;16.20;76.40
40085;DHT22;25786;51.504;7.344;2023-10-08T12:20:48;16.20;77.00
40085;DHT22;25786;51.504;7.344;2023-10-08T12:23:14;16.10;77.30
40085;DHT22;25786;51.504;7.344;2023-10-08T12:25:51;16.00;77.60
40085;DHT22;25786;51.504;7.344;2023-10-08T12:28:19;16.10;77.10
40085;DHT22;25786;51.504;7.344;2023-10-08T12:30:45;16.10;77.60
40085;DHT22;25786;51.504;7.344;2023-10-08T12:33:10;16.20;77.20
40085;DHT22;25786;51.504;7.344;2023-10-08T12:35:39;16.20;77.70
40085;DHT22;25786;51.504;7.344;2023-10-08T12:38:04;16.30;76.80
40085;DHT22;25786;51.504;7.344;2023-10-08T12:40:30;16.30;76.00
40085;DHT22;25786;51.504;7.344;2023-10-08T12:43:08;16.20;77.20
40085;DHT22;25786;51.504;7.344;2023-10-08T12:45:33;16.10;76.00
40085;DHT22;25786;51.504;7.344;2023-10-08T12:47:59;16.00;77.00
40085;DHT22;25786;51.504;7.344;2023-10-08T12:50:24;15.80;76.90
40085;DHT22;25786;51.504;7.344;2023-10-08T12:53:10;15.90;77.60
40085;DHT22;25786;51.504;7.344;2023-10-08T12:55:39;16.00;78.20
40085;DHT22;25786;51.504;7.344;2023-10-08T12:58:05;16.00;77.90
40085;DHT22;25786;51.504;7.344;2023-10-08T13:00:37;16.00;77.20
40085;DHT22;25786;51.504;7.344;2023-10-08T13:03:03;16.10;77.00
40085;DHT22;25786;51.504;7.344;2023-10-08T13:05:31;16.00;77.20
40085;DHT22;25786;51.504;7.344;2023-10-08T13:07:58;16.10;77.90
40085;DHT22;25786;51.504;7.344;2023-10-08T13:10:28;16.10;77.90
40085;DHT22;25786;51.504;7.344;2023-10-08T13:12:56;16.20;77.30
40085;DHT22;25786;51.504;7.344;2023-10-08T13:15:22;16.10;77.00
40085;DHT22;25786;51.504;7.344;2023-10-08T13:17:52;16.10;78.40
40085;DHT22;25786;51.504;7.344;2023-10-08T13:20:19;16.30;78.00
40085;DHT22;25786;51.504;7.344;2023-10-08T13:22:46;16.50;77.30
40085;DHT22;25786;51.504;7.344;2023-10-08T13:25:12;16.50;77.40
40085;DHT22;25786;51.504;7.344;2023-10-08T13:27:38;16.60;76.90
40085;DHT22;25786;51.504;7.344;2023-10-08T13:30:05;16.80;77.50
40085;DHT22;25786;51.504;7.344;2023-10-08T13:32:33;16.90;76.40
40085;DHT22;25786;51.504;7.344;2023-10-08T13:35:01;16.80;76.30
40085;DHT22;25786;51.504;7.344;2023-10-08T13:37:26;16.90;76.00
40085;DHT22;25786;51.504;7.344;2023-10-08T13:39:52;17.00;75.80
40085;DHT22;25786;51.504;7.344;2023-10-08T13:42:18;17.00;75.80
40085;DHT22;25786;51.504;7.344;2023-10-08T13:44:46;16.90;76.20
40085;DHT22;25786;51.504;7.344;2023-10-08T13:47:11;16.90;76.40
40085;DHT22;25786;51.504;7.344;2023-10-08T13:49:40;16.90;76.70
40085;DHT22;25786;51.504;7.344;2023-10-08T13:52:08;16.80;77.10
40085;DHT22;25786;51.504;7.344;2023-10-08T13:54:34;16.80;77.00
40085;DHT22;25786;51.504;7.344;2023-10-08T13:57:04;16.80;77.10
40085;DHT22;25786;51.504;7.344;2023-10-08T13:59:34;16.80;77.30
40085;DHT22;25786;51.504;7.344;2023-10-08T14:01:59;16.70;77.30
40085;DHT22;25786;51.504;7.344;2023-10-08T14:04:27;16.60;77.00
40085;DHT22;25786;51.504;7.344;2023-10-08T14:06:55;16.60;77.40
40085;DHT22;25786;51.504;7.344;2023-10-08T14:09:23;16.50;77.90
40085;DHT22;25786;51.504;7.344;2023-10-08T14:12:02;16.40;78.60
40085;DHT22;25786;51.504;7.344;2023-10-08T14:14:27;16.40;79.10
40085;DHT22;25786;51.504;7.344;2023-10-08T14:16:56;16.40;79.50
40085;DHT22;25786;51.504;7.344;2023-10-08T14:19:25;16.40;78.80
40085;DHT22;25786;51.504;7.344;2023-10-08T14:22:01;16.50;78.80
40085;DHT22;25786;51.504;7.344;2023-10-08T14:24:29;16.50;78.80
40085;DHT22;25786;51.504;7.344;2023-10-08T14:26:58;16.60;78.20
40085;DHT22;25786;51.504;7.344;2023-10-08T14:29:28;16.50;78.60
40085;DHT22;25786;51.504;7.344;2023-10-08T14:31:54;16.70;78.10
40085;DHT22;25786;51.504;7.344;2023-10-08T14:34:24;16.60;78.30
40085;DHT22;25786;51.504;7.344;2023-10-08T14:37:08;16.60;79.10
40085;DHT22;25786;51.504;7.344;2023-10-08T14:39:53;16.70;79.50
40085;DHT22;25786;51.504;7.344;2023-10-08T14:42:37;16.60;79.40
40085;DHT22;25786;51.504;7.344;2023-10-08T14:45:24;16.30;79.80
40085;DHT22;25786;51.504;7.344;2023-10-08T14:47:53;16.50;81.70
40085;DHT22;25786;51.504;7.344;2023-10-08T14:50:20;16.50;81.20
40085;DHT22;25786;51.504;7.344;2023-10-08T14:52:47;16.60;80.00
40085;DHT22;25786;51.504;7.344;2023-10-08T14:55:12;16.60;80.10
40085;DHT22;25786;51.504;7.344;2023-10-08T14:57:38;16.50;81.30
40085;DHT22;25786;51.504;7.344;2023-10-08T15:00:05;16.60;80.50
40085;DHT22;25786;51.504;7.344;2023-10-08T15:02:31;16.50;79.80
40085;DHT22;25786;51.504;7.344;2023-10-08T15:04:56;16.30;80.20
40085;DHT22;25786;51.504;7.344;2023-10-08T15:07:23;16.40;81.00
40085;DHT22;25786;51.504;7.344;2023-10-08T15:09:48;16.40;81.50
40085;DHT22;25786;51.504;7.344;2023-10-08T15:12:15;16.40;81.00
40085;DHT22;25786;51.504;7.344;2023-10-08T15:14:43;16.40;80.60
40085;DHT22;25786;51.504;7.344;2023-10-08T15:17:08;16.40;80.50
40085;DHT22;25786;51.504;7.344;2023-10-08T15:19:35;16.30;81.20
40085;DHT22;25786;51.504;7.344;2023-10-08T15:22:00;16.30;81.70
40085;DHT22;25786;51.504;7.344;2023-10-08T15:24:26;16.30;81.30
40085;DHT22;25786;51.504;7.344;2023-10-08T15:26:52;16.60;80.40
40085;DHT22;25786;51.504;7.344;2023-10-08T15:29:18;16.60;80.60
40085;DHT22;25786;51.504;7.344;2023-10-08T15:31:44;16.50;80.40
40085;DHT22;25786;51.504;7.344;2023-10-08T15:34:10;16.40;80.40
40085;DHT22;25786;51.504;7.344;2023-10-08T15:36:40;16.30;81.20
40085;DHT22;25786;51.504;7.344;2023-10-08T15:39:06;16.40;80.90
40085;DHT22;25786;51.504;7.344;2023-10-08T15:41:38;16.30;81.20
40085;DHT22;25786;51.504;7.344;2023-10-08T15:44:04;16.30;81.90
40085;DHT22;25786;51.504;7.344;2023-10-08T15:46:30;16.50;81.60
40085;DHT22;25786;51.504;7.344;2023-10-08T15:48:56;16.30;81.60
40085;DHT22;25786;51.504;7.344;2023-10-08T15:51:22;16.40;81.10
40085;DHT22;25786;51.504;7.344;2023-10-08T15:53:50;16.40;81.40
40085;DHT22;25786;51.504;7.344;2023-10-08T15:56:16;16.40;81.30